Terminal Aerodrome Forecast
Issued by NWS Central Illinois

Home | Current Version | Previous Version | Text Only | Print | Product List | Glossary On
Versions: 1 2 3 4 5 6 7 8 9 10 11 12
000
FTUS43 KILX 012100 AAA
TAFSPI
TAF AMD
KSPI 012123Z 0121/0218 30008KT 6SM -RA BR OVC004
     FM012300 34012KT 2SM -SN BR OVC004
     FM020000 35018G28KT 2SM -SN OVC008
     FM020600 35020G28KT P6SM OVC015
     FM021500 32010KT P6SM SCT020=

USA.gov is the U.S. government's official web portal to all federal, state and local government web resources and services.